createdAt,value
2022-11-16T00:02:18.731Z,9.00
2022-11-16T00:04:45.640Z,9.10
2022-11-16T00:07:12.528Z,9.13
2022-11-16T00:09:39.475Z,9.35
2022-11-16T00:12:07.282Z,8.98
2022-11-16T00:14:35.018Z,9.10
2022-11-16T00:17:02.035Z,9.23
2022-11-16T00:19:29.157Z,9.27
2022-11-16T00:21:56.076Z,9.32
2022-11-16T00:24:23.416Z,9.20
2022-11-16T00:26:50.561Z,9.18
2022-11-16T00:29:20.079Z,9.43
2022-11-16T00:31:47.108Z,8.90
2022-11-16T00:34:14.143Z,9.27
2022-11-16T00:36:41.018Z,9.30
2022-11-16T00:39:13.307Z,9.10
2022-11-16T00:41:40.805Z,8.55
2022-11-16T00:44:08.029Z,9.25
2022-11-16T00:46:34.855Z,8.77
2022-11-16T00:49:02.037Z,8.77
2022-11-16T00:51:29.248Z,9.05
2022-11-16T00:53:56.496Z,9.80
2022-11-16T00:56:23.408Z,9.23
2022-11-16T00:58:50.268Z,9.07
2022-11-16T01:01:17.303Z,9.13
2022-11-16T01:03:44.271Z,8.55
2022-11-16T01:06:13.028Z,9.02
2022-11-16T01:08:40.236Z,8.68
2022-11-16T01:11:26.139Z,8.98
2022-11-16T01:13:53.085Z,8.98
2022-11-16T01:16:21.050Z,8.20
2022-11-16T01:18:49.192Z,8.68
2022-11-16T01:21:16.644Z,8.45
2022-11-16T01:23:44.253Z,8.10
2022-11-16T01:26:11.127Z,8.10
2022-11-16T01:28:39.508Z,8.60
2022-11-16T01:31:08.239Z,8.55
2022-11-16T01:33:36.911Z,8.38
2022-11-16T01:36:08.171Z,9.50
2022-11-16T01:38:35.539Z,8.82
2022-11-16T01:41:02.793Z,8.93
2022-11-16T01:43:48.330Z,7.93
2022-11-16T01:48:42.695Z,8.38
2022-11-16T01:51:09.576Z,8.07
2022-11-16T01:53:36.623Z,8.30
2022-11-16T01:56:03.995Z,9.10
2022-11-16T01:58:43.061Z,7.72
2022-11-16T02:01:25.523Z,7.93
2022-11-16T02:03:56.249Z,8.10
2022-11-16T02:06:23.318Z,8.55
2022-11-16T02:09:25.710Z,8.18
2022-11-16T02:12:06.504Z,8.30
2022-11-16T02:15:07.855Z,8.80
2022-11-16T02:17:47.316Z,8.02
2022-11-16T02:20:48.859Z,8.48
2022-11-16T02:23:21.875Z,7.93
2022-11-16T02:26:09.003Z,8.23
2022-11-16T02:29:15.413Z,7.82
2022-11-16T02:32:06.395Z,7.78
2022-11-16T02:34:53.061Z,8.35
2022-11-16T02:37:20.984Z,7.75
2022-11-16T02:39:49.257Z,8.35
2022-11-16T02:42:26.298Z,8.60
2022-11-16T02:44:53.282Z,7.80
2022-11-16T02:47:22.779Z,8.13
2022-11-16T02:49:56.522Z,8.63
2022-11-16T02:52:23.476Z,8.02
2022-11-16T02:54:50.291Z,8.38
2022-11-16T02:57:25.381Z,8.15
2022-11-16T02:59:53.462Z,8.13
2022-11-16T03:02:28.254Z,8.52
2022-11-16T03:04:59.704Z,8.63
2022-11-16T03:07:33.680Z,7.40
2022-11-16T03:10:00.715Z,6.95
2022-11-16T03:12:31.450Z,6.20
2022-11-16T03:15:00.091Z,6.32
2022-11-16T03:17:47.303Z,6.50
2022-11-16T03:20:16.402Z,6.28
2022-11-16T03:22:48.415Z,5.95
2022-11-16T03:25:18.479Z,6.00
2022-11-16T03:27:59.790Z,5.50
2022-11-16T03:30:27.962Z,5.40
2022-11-16T03:33:27.387Z,5.10
2022-11-16T03:36:01.613Z,5.53
2022-11-16T03:38:31.257Z,5.40
2022-11-16T03:41:01.254Z,5.18
2022-11-16T03:43:28.783Z,4.63
2022-11-16T03:45:55.672Z,4.72
2022-11-16T03:48:23.669Z,4.80
2022-11-16T03:50:50.742Z,4.47
2022-11-16T03:53:18.891Z,4.95
2022-11-16T03:55:49.830Z,4.18
2022-11-16T03:58:18.663Z,4.82
2022-11-16T04:00:45.820Z,4.80
2022-11-16T04:03:12.917Z,4.68
2022-11-16T04:05:58.689Z,4.10
2022-11-16T04:08:44.106Z,4.72
2022-11-16T04:11:34.027Z,4.35
2022-11-16T04:14:19.619Z,4.70
2022-11-16T04:17:05.213Z,4.30
2022-11-16T04:19:56.751Z,5.10
2022-11-16T04:22:46.760Z,4.47
2022-11-16T04:25:20.836Z,4.25
2022-11-16T04:28:06.383Z,4.15
2022-11-16T04:30:51.904Z,4.10
2022-11-16T04:33:38.178Z,4.30
2022-11-16T04:36:23.715Z,4.10
2022-11-16T04:38:50.635Z,4.43
2022-11-16T04:41:37.004Z,4.28
2022-11-16T04:44:03.949Z,4.25
2022-11-16T04:47:03.337Z,4.40
2022-11-16T04:49:30.408Z,4.10
2022-11-16T04:51:58.713Z,4.30
2022-11-16T04:54:26.146Z,4.13
2022-11-16T04:56:53.230Z,4.50
2022-11-16T04:59:21.018Z,4.45
2022-11-16T05:02:06.720Z,4.60
2022-11-16T05:04:33.877Z,10.95
2022-11-16T05:07:01.087Z,6.68
2022-11-16T05:09:28.108Z,5.78
2022-11-16T05:11:55.032Z,5.50
2022-11-16T05:14:22.212Z,5.32
2022-11-16T05:16:49.652Z,5.35
2022-11-16T05:19:35.989Z,5.32
2022-11-16T05:22:04.122Z,4.85
2022-11-16T05:24:33.865Z,5.57
2022-11-16T05:27:07.263Z,5.70
2022-11-16T05:29:35.259Z,5.80
2022-11-16T05:32:03.726Z,5.32
2022-11-16T05:34:31.700Z,5.35
2022-11-16T05:37:00.562Z,5.28
2022-11-16T05:39:29.731Z,5.43
2022-11-16T05:41:57.108Z,5.50
2022-11-16T05:44:24.323Z,5.30
2022-11-16T05:46:51.798Z,5.80
2022-11-16T05:49:20.243Z,6.07
2022-11-16T05:51:48.355Z,5.88
2022-11-16T05:54:20.279Z,5.63
2022-11-16T05:56:48.226Z,6.72
2022-11-16T05:59:17.464Z,6.45
2022-11-16T06:01:45.804Z,6.38
2022-11-16T06:04:13.007Z,6.00
2022-11-16T06:06:40.320Z,6.28
2022-11-16T06:09:07.921Z,6.28
2022-11-16T06:11:38.274Z,12.07
2022-11-16T06:14:06.294Z,7.75
2022-11-16T06:16:34.705Z,13.73
2022-11-16T06:19:05.321Z,10.13
2022-11-16T06:21:33.157Z,10.02
2022-11-16T06:24:05.868Z,9.70
2022-11-16T06:26:32.827Z,9.32
2022-11-16T06:28:59.933Z,9.18
2022-11-16T06:31:28.001Z,8.15
2022-11-16T06:33:55.461Z,8.70
2022-11-16T06:36:26.243Z,8.35
2022-11-16T06:38:53.677Z,8.50
2022-11-16T06:41:22.124Z,8.07
2022-11-16T06:43:50.538Z,7.35
2022-11-16T06:46:21.040Z,9.80
2022-11-16T06:48:48.523Z,8.90
2022-11-16T06:51:15.426Z,8.98
2022-11-16T06:53:42.749Z,8.65
2022-11-16T06:56:09.643Z,8.38
2022-11-16T06:58:43.045Z,8.82
2022-11-16T07:01:11.748Z,8.38
2022-11-16T07:03:41.061Z,8.27
2022-11-16T07:06:13.018Z,8.57
2022-11-16T07:08:42.671Z,8.38
2022-11-16T07:11:11.452Z,8.43
2022-11-16T07:13:38.627Z,8.05
2022-11-16T07:16:07.828Z,8.40
2022-11-16T07:18:35.984Z,7.90
2022-11-16T07:21:15.548Z,8.05
2022-11-16T07:23:43.969Z,7.85
2022-11-16T07:26:15.239Z,7.47
2022-11-16T07:28:53.451Z,7.80
2022-11-16T07:31:22.433Z,7.65
2022-11-16T07:34:10.360Z,7.72
2022-11-16T07:36:42.773Z,7.95
2022-11-16T07:39:10.767Z,8.05
2022-11-16T07:41:38.641Z,7.55
2022-11-16T07:44:25.815Z,7.80
2022-11-16T07:47:05.530Z,6.75
2022-11-16T07:49:34.048Z,7.00
2022-11-16T07:52:21.570Z,7.05
2022-11-16T07:55:10.216Z,7.22
2022-11-16T07:57:37.278Z,7.18
2022-11-16T08:00:07.408Z,7.10
2022-11-16T08:02:50.408Z,6.72
2022-11-16T08:05:20.020Z,6.63
2022-11-16T08:07:49.100Z,7.43
2022-11-16T08:10:17.137Z,7.20
2022-11-16T08:12:44.259Z,7.30
2022-11-16T08:15:11.728Z,6.80
2022-11-16T08:17:38.724Z,6.78
2022-11-16T08:20:08.439Z,6.75
2022-11-16T08:22:35.553Z,6.93
2022-11-16T08:25:02.818Z,6.85
2022-11-16T08:27:31.078Z,6.30
2022-11-16T08:29:58.133Z,6.70
2022-11-16T08:32:25.983Z,6.72
2022-11-16T08:34:54.206Z,17.05
2022-11-16T08:37:22.099Z,11.02
2022-11-16T08:39:49.241Z,10.23
2022-11-16T08:42:16.190Z,9.43
2022-11-16T08:44:46.715Z,9.43
2022-11-16T08:47:15.749Z,9.40
2022-11-16T08:49:52.104Z,9.73
2022-11-16T08:52:22.299Z,8.85
2022-11-16T08:54:50.946Z,9.70
2022-11-16T08:57:18.167Z,15.25
2022-11-16T08:59:48.399Z,19.48
2022-11-16T09:02:15.436Z,16.35
2022-11-16T09:04:44.767Z,14.57
2022-11-16T09:07:11.920Z,14.70
2022-11-16T09:09:43.380Z,13.98
2022-11-16T09:12:10.322Z,13.38
2022-11-16T09:14:37.325Z,13.57
2022-11-16T09:17:04.301Z,13.23
2022-11-16T09:19:31.192Z,12.43
2022-11-16T09:21:58.201Z,12.48
2022-11-16T09:24:25.053Z,12.77
2022-11-16T09:26:51.975Z,12.27
2022-11-16T09:29:19.016Z,11.07
2022-11-16T09:31:46.162Z,16.10
2022-11-16T09:34:13.109Z,14.15
2022-11-16T09:36:40.130Z,13.50
2022-11-16T09:42:01.801Z,12.77
2022-11-16T09:44:57.862Z,12.70
2022-11-16T09:47:36.225Z,12.07
2022-11-16T09:50:04.324Z,11.10
2022-11-16T09:52:44.792Z,11.63
2022-11-16T09:55:25.101Z,11.23
2022-11-16T09:57:53.759Z,10.57
2022-11-16T10:00:25.772Z,11.07
2022-11-16T10:03:06.544Z,10.30
2022-11-16T10:05:56.458Z,10.77
2022-11-16T10:08:28.429Z,10.10
2022-11-16T10:11:00.215Z,10.30
2022-11-16T10:13:34.965Z,10.02
2022-11-16T10:16:32.434Z,9.77
2022-11-16T10:19:05.833Z,9.75
2022-11-16T10:22:17.937Z,9.40
2022-11-16T10:24:58.025Z,9.10
2022-11-16T10:27:50.232Z,9.43
2022-11-16T10:30:20.824Z,9.45
2022-11-16T10:33:12.819Z,9.82
2022-11-16T10:35:48.305Z,9.85
2022-11-16T10:38:17.316Z,8.73
2022-11-16T10:40:46.450Z,8.20
2022-11-16T10:43:16.867Z,8.10
2022-11-16T10:45:45.957Z,8.70
2022-11-16T10:48:17.946Z,8.77
2022-11-16T10:50:46.931Z,7.75
2022-11-16T10:53:15.309Z,7.20
2022-11-16T10:55:42.380Z,8.07
2022-11-16T10:58:09.394Z,7.35
2022-11-16T11:00:48.122Z,7.63
2022-11-16T11:03:15.323Z,7.47
2022-11-16T11:05:52.518Z,11.20
2022-11-16T11:08:39.720Z,9.45
2022-11-16T11:11:25.519Z,9.43
2022-11-16T11:14:08.457Z,8.82
2022-11-16T11:16:35.535Z,8.40
2022-11-16T11:19:18.892Z,9.45
2022-11-16T11:21:45.961Z,7.80
2022-11-16T11:24:43.263Z,7.88
2022-11-16T11:27:04.784Z,7.88
2022-11-16T11:29:32.719Z,8.57
2022-11-16T11:32:07.447Z,8.02
2022-11-16T11:34:39.812Z,7.82
2022-11-16T11:37:07.240Z,7.25
2022-11-16T11:39:35.275Z,7.65
2022-11-16T11:42:09.383Z,7.47
2022-11-16T11:44:37.389Z,7.03
2022-11-16T11:47:57.262Z,8.95
2022-11-16T11:50:46.001Z,7.68
2022-11-16T11:53:29.287Z,7.95
2022-11-16T11:55:58.361Z,7.53
2022-11-16T11:58:35.690Z,7.20
2022-11-16T12:01:24.999Z,7.32
2022-11-16T12:04:34.548Z,6.57
2022-11-16T12:07:32.200Z,7.15
2022-11-16T12:10:20.260Z,6.72
2022-11-16T12:12:49.867Z,6.88
2022-11-16T12:15:51.561Z,6.80
2022-11-16T12:18:31.560Z,6.50
2022-11-16T12:21:27.953Z,5.90
2022-11-16T12:24:09.882Z,5.88
2022-11-16T12:26:52.827Z,6.20
2022-11-16T12:29:27.195Z,6.70
2022-11-16T12:35:02.840Z,5.30
2022-11-16T12:37:39.441Z,6.00
2022-11-16T12:40:21.620Z,6.35
2022-11-16T12:43:03.795Z,6.78
2022-11-16T12:45:48.782Z,6.68
2022-11-16T12:48:21.619Z,7.28
2022-11-16T12:51:06.857Z,7.30
2022-11-16T12:53:47.312Z,7.10
2022-11-16T12:56:49.457Z,6.82
2022-11-16T12:59:25.681Z,7.07
2022-11-16T13:02:08.539Z,7.25
2022-11-16T13:04:41.592Z,6.93
2022-11-16T13:07:11.601Z,8.00
2022-11-16T13:09:47.492Z,7.18
2022-11-16T13:12:17.285Z,7.88
2022-11-16T13:14:48.212Z,8.43
2022-11-16T13:17:41.586Z,9.93
2022-11-16T13:20:33.041Z,8.23
2022-11-16T13:23:18.995Z,9.13
2022-11-16T13:25:59.904Z,8.93
2022-11-16T13:28:37.528Z,9.48
2022-11-16T13:31:20.884Z,7.95
2022-11-16T13:33:51.209Z,9.70
2022-11-16T13:36:43.554Z,9.18
2022-11-16T13:39:52.492Z,9.50
2022-11-16T13:42:19.430Z,9.68
2022-11-16T13:44:51.384Z,10.30
2022-11-16T13:47:24.818Z,9.70
2022-11-16T13:49:56.695Z,11.70
2022-11-16T13:52:28.740Z,11.65
2022-11-16T13:55:27.816Z,11.32
2022-11-16T13:57:55.412Z,10.80
2022-11-16T14:00:33.453Z,11.02
2022-11-16T14:03:15.642Z,11.48
2022-11-16T14:05:47.203Z,11.93
2022-11-16T14:08:20.090Z,12.48
2022-11-16T14:10:52.753Z,12.55
2022-11-16T14:13:39.696Z,11.63
2022-11-16T14:16:19.505Z,10.75
2022-11-16T14:18:53.266Z,12.30
2022-11-16T14:21:20.265Z,12.43
2022-11-16T14:24:14.884Z,12.52
2022-11-16T14:27:17.067Z,12.50
2022-11-16T14:30:19.628Z,13.73
2022-11-16T14:32:47.649Z,12.65
2022-11-16T14:35:37.306Z,12.95
2022-11-16T14:38:06.596Z,14.00
2022-11-16T14:40:41.910Z,14.70
2022-11-16T14:43:17.569Z,14.40
2022-11-16T14:45:47.471Z,14.00
2022-11-16T14:48:19.277Z,13.93
2022-11-16T14:51:07.593Z,15.27
2022-11-16T14:53:35.536Z,16.45
2022-11-16T14:56:13.047Z,16.55
2022-11-16T14:58:40.183Z,17.25
2022-11-16T15:01:11.838Z,16.85
2022-11-16T15:04:04.844Z,17.42
2022-11-16T15:06:58.178Z,16.75
2022-11-16T15:09:38.721Z,18.05
2022-11-16T15:12:25.224Z,18.08
2022-11-16T15:14:56.484Z,17.65
2022-11-16T15:17:30.128Z,17.63
2022-11-16T15:20:01.464Z,17.58
2022-11-16T15:22:32.216Z,18.77
2022-11-16T15:25:00.239Z,17.80
2022-11-16T15:27:41.142Z,16.90
2022-11-16T15:30:16.211Z,17.65
2022-11-16T15:32:46.631Z,17.40
2022-11-16T15:35:34.032Z,18.20
2022-11-16T15:38:22.751Z,17.35
2022-11-16T15:40:55.527Z,19.00
2022-11-16T15:43:24.531Z,17.80
2022-11-16T15:45:51.842Z,17.80
2022-11-16T15:48:22.987Z,17.02
2022-11-16T15:51:15.518Z,18.35
2022-11-16T15:53:43.958Z,17.65
2022-11-16T15:56:16.818Z,18.92
2022-11-16T15:58:43.749Z,17.98
2022-11-16T16:01:11.241Z,18.83
2022-11-16T16:03:38.462Z,18.48
2022-11-16T16:06:05.869Z,18.25
2022-11-16T16:08:33.427Z,17.58
2022-11-16T16:11:09.472Z,17.58
2022-11-16T16:13:41.575Z,17.73
2022-11-16T16:16:22.856Z,17.20
2022-11-16T16:18:49.915Z,16.88
2022-11-16T16:21:16.768Z,16.65
2022-11-16T16:23:45.619Z,16.33
2022-11-16T16:26:13.566Z,16.58
2022-11-16T16:28:40.397Z,16.58
2022-11-16T16:31:07.522Z,16.13
2022-11-16T16:33:34.663Z,16.17
2022-11-16T16:36:01.878Z,15.85
2022-11-16T16:38:29.214Z,14.43
2022-11-16T16:41:05.304Z,15.65
2022-11-16T16:43:32.549Z,15.02
2022-11-16T16:46:03.786Z,16.08
2022-11-16T16:48:30.632Z,16.17
2022-11-16T16:50:57.594Z,15.70
2022-11-16T16:53:24.526Z,15.20
2022-11-16T16:55:51.366Z,14.88
2022-11-16T16:58:18.753Z,15.43
2022-11-16T17:00:45.799Z,14.60
2022-11-16T17:03:12.653Z,14.60
2022-11-16T17:05:39.576Z,14.55
2022-11-16T17:08:06.442Z,14.52
2022-11-16T17:10:33.282Z,14.77
2022-11-16T17:13:03.090Z,14.52
2022-11-16T17:15:30.076Z,14.00
2022-11-16T17:17:58.281Z,15.30
2022-11-16T17:20:25.210Z,14.25
2022-11-16T17:22:52.027Z,14.25
2022-11-16T17:25:18.856Z,13.98
2022-11-16T17:27:45.706Z,13.52
2022-11-16T17:30:13.373Z,12.57
2022-11-16T17:32:40.199Z,14.45
2022-11-16T17:35:07.405Z,13.55
2022-11-16T17:37:34.203Z,13.80
2022-11-16T17:40:01.041Z,13.43
2022-11-16T17:42:27.891Z,13.35
2022-11-16T17:44:55.194Z,12.85
2022-11-16T17:47:22.202Z,13.35
2022-11-16T17:49:49.052Z,12.90
2022-11-16T17:52:15.890Z,12.48
2022-11-16T17:54:42.756Z,12.32
2022-11-16T17:57:09.687Z,12.48
2022-11-16T17:59:36.505Z,11.95
2022-11-16T18:02:03.301Z,12.07
2022-11-16T18:04:30.182Z,11.93
2022-11-16T18:06:57.171Z,11.73
2022-11-16T18:09:24.210Z,11.38
2022-11-16T18:11:51.062Z,11.23
2022-11-16T18:14:17.885Z,11.45
2022-11-16T18:16:44.773Z,12.15
2022-11-16T18:19:15.897Z,11.45
2022-11-16T18:21:42.849Z,11.07
2022-11-16T18:24:09.732Z,10.68
2022-11-16T18:26:36.719Z,11.10
2022-11-16T18:29:03.570Z,11.02
2022-11-16T18:31:32.911Z,10.75
2022-11-16T18:34:01.027Z,11.88
2022-11-16T18:36:27.885Z,10.45
2022-11-16T18:38:54.824Z,10.82
2022-11-16T18:41:24.096Z,10.75
2022-11-16T18:43:52.655Z,10.73
2022-11-16T18:46:20.553Z,10.88
2022-11-16T18:48:47.772Z,11.75
2022-11-16T18:51:15.179Z,11.65
2022-11-16T18:53:42.017Z,11.40
2022-11-16T18:56:08.995Z,10.63
2022-11-16T18:58:49.746Z,11.25
2022-11-16T19:01:18.546Z,11.02
2022-11-16T19:03:45.525Z,10.70
2022-11-16T19:06:12.408Z,10.85
2022-11-16T19:08:40.265Z,10.73
2022-11-16T19:11:08.975Z,10.52
2022-11-16T19:13:36.111Z,10.45
2022-11-16T19:16:03.289Z,11.32
2022-11-16T19:18:30.096Z,10.45
2022-11-16T19:21:14.142Z,10.88
2022-11-16T19:23:48.465Z,10.00
2022-11-16T19:26:16.178Z,10.38
2022-11-16T19:28:44.289Z,10.35
2022-11-16T19:31:12.780Z,9.43
2022-11-16T19:33:40.097Z,10.00
2022-11-16T19:36:11.029Z,10.50
2022-11-16T19:38:37.922Z,10.35
2022-11-16T19:41:05.553Z,9.95
2022-11-16T19:43:33.216Z,9.77
2022-11-16T19:46:04.173Z,9.40
2022-11-16T19:48:32.353Z,9.98
2022-11-16T19:51:05.469Z,9.10
2022-11-16T19:53:32.853Z,9.50
2022-11-16T19:55:59.898Z,9.85
2022-11-16T19:58:26.790Z,9.57
2022-11-16T20:01:00.453Z,9.25
2022-11-16T20:03:27.343Z,10.02
2022-11-16T20:05:54.287Z,9.32
2022-11-16T20:08:21.145Z,9.27
2022-11-16T20:10:47.980Z,9.32
2022-11-16T20:13:14.794Z,9.68
2022-11-16T20:15:41.664Z,8.77
2022-11-16T20:18:08.526Z,9.23
2022-11-16T20:20:35.335Z,8.82
2022-11-16T20:23:02.204Z,9.20
2022-11-16T20:25:29.532Z,8.65
2022-11-16T20:27:56.389Z,8.85
2022-11-16T20:30:23.263Z,8.75
2022-11-16T20:32:50.172Z,8.77
2022-11-16T20:35:19.223Z,8.65
2022-11-16T20:37:46.296Z,8.77
2022-11-16T20:40:13.742Z,8.63
2022-11-16T20:42:40.570Z,8.55
2022-11-16T20:45:08.242Z,9.68
2022-11-16T20:47:35.075Z,8.98
2022-11-16T20:50:03.191Z,8.82
2022-11-16T20:52:30.205Z,8.88
2022-11-16T20:54:57.035Z,8.73
2022-11-16T20:57:24.095Z,9.00
2022-11-16T20:59:50.977Z,8.88
2022-11-16T21:02:17.842Z,8.85
2022-11-16T21:04:44.649Z,8.90
2022-11-16T21:07:11.547Z,9.18
2022-11-16T21:09:58.362Z,9.05
2022-11-16T21:12:43.906Z,8.73
2022-11-16T21:15:10.897Z,8.15
2022-11-16T21:17:37.736Z,9.00
2022-11-16T21:20:26.321Z,9.00
2022-11-16T21:22:51.674Z,9.35
2022-11-16T21:25:18.548Z,9.05
2022-11-16T21:27:46.279Z,8.82
2022-11-16T21:30:13.753Z,9.00
2022-11-16T21:32:40.621Z,9.32
2022-11-16T21:35:07.802Z,8.68
2022-11-16T21:37:34.636Z,8.77
2022-11-16T21:40:01.559Z,8.55
2022-11-16T21:42:28.387Z,8.32
2022-11-16T21:44:55.202Z,8.38
2022-11-16T21:47:22.273Z,8.50
2022-11-16T21:50:16.714Z,8.25
2022-11-16T21:52:36.382Z,8.35
2022-11-16T21:55:03.299Z,7.70
2022-11-16T21:57:30.126Z,7.72
2022-11-16T21:59:57.028Z,6.70
2022-11-16T22:02:23.862Z,6.72
2022-11-16T22:05:23.206Z,7.35
2022-11-16T22:07:50.110Z,6.63
2022-11-16T22:10:17.349Z,6.28
2022-11-16T22:12:44.213Z,5.03
2022-11-16T22:15:11.186Z,6.32
2022-11-16T22:17:44.782Z,5.68
2022-11-16T22:20:11.764Z,5.45
2022-11-16T22:22:38.578Z,5.22
2022-11-16T22:25:06.306Z,5.55
2022-11-16T22:27:42.383Z,5.22
2022-11-16T22:30:19.364Z,5.20
2022-11-16T22:32:46.163Z,4.65
2022-11-16T22:35:13.050Z,4.57
2022-11-16T22:37:39.956Z,4.93
2022-11-16T22:40:07.254Z,4.63
2022-11-16T22:42:34.123Z,4.47
2022-11-16T22:45:01.005Z,4.40
2022-11-16T22:47:27.828Z,4.32
2022-11-16T22:49:54.693Z,4.03
2022-11-16T22:52:21.597Z,4.45
2022-11-16T22:54:48.527Z,4.47
2022-11-16T22:57:15.401Z,4.63
2022-11-16T22:59:42.264Z,4.30
2022-11-16T23:02:09.162Z,4.20
2022-11-16T23:04:36.072Z,3.35
2022-11-16T23:07:03.215Z,4.15
2022-11-16T23:09:32.013Z,4.05
2022-11-16T23:12:17.558Z,3.70
2022-11-16T23:15:03.157Z,4.00
2022-11-16T23:17:30.012Z,4.10
2022-11-16T23:20:17.760Z,3.67
2022-11-16T23:23:03.789Z,4.03
2022-11-16T23:26:00.245Z,3.53
2022-11-16T23:28:27.112Z,3.63
2022-11-16T23:30:54.048Z,3.33
2022-11-16T23:33:40.866Z,3.10
2022-11-16T23:36:08.142Z,3.25
2022-11-16T23:38:34.996Z,3.40
2022-11-16T23:41:21.807Z,3.35
2022-11-16T23:44:00.744Z,3.08
2022-11-16T23:46:28.975Z,3.35
2022-11-16T23:48:55.910Z,3.10
2022-11-16T23:51:23.515Z,3.22
2022-11-16T23:53:51.772Z,2.75
2022-11-16T23:56:19.667Z,3.05
2022-11-16T23:58:46.591Z,3.13
